Time;durP1;ratioP1;P1;durP2;ratioP2;P2;SDS_P1;SDS_P2;PMS_P1;PMS_P2;Temp;Humidity;BMP_temperature;BMP_pressure;BME280_temperature;BME280_humidity;BME280_pressure;Samples;Min_cycle;Max_cycle;Signal;HPM_P1;HPM_P2
2023/08/07 00:00:59;;;;;;;10.75;9.55;;;;;;;14.32;100.00;99732.09;7396093;19;20074;-66
2023/08/07 00:03:28;;;;;;;14.45;10.20;;;;;;;14.30;100.00;99734.78;7396723;19;20074;-66
2023/08/07 00:05:56;;;;;;;11.43;9.55;;;;;;;14.30;100.00;99736.59;7398472;19;20027;-66
2023/08/07 00:08:25;;;;;;;10.60;9.20;;;;;;;14.27;100.00;99727.06;7396524;19;20011;-66
2023/08/07 00:10:53;;;;;;;10.82;9.00;;;;;;;14.26;100.00;99729.78;7394889;19;20014;-66
2023/08/07 00:13:24;;;;;;;13.32;9.80;;;;;;;14.24;100.00;99721.09;7395152;19;20098;-66
2023/08/07 00:15:53;;;;;;;13.95;10.07;;;;;;;14.23;100.00;99729.94;7396706;19;20039;-66
2023/08/07 00:18:21;;;;;;;11.38;10.18;;;;;;;14.23;100.00;99732.56;7398473;19;20082;-66
2023/08/07 00:20:50;;;;;;;13.63;10.55;;;;;;;14.21;100.00;99732.66;7395963;19;20018;-66
2023/08/07 00:23:18;;;;;;;13.55;11.15;;;;;;;14.22;100.00;99741.44;7397463;19;20073;-67
2023/08/07 00:25:46;;;;;;;13.65;10.05;;;;;;;14.18;100.00;99733.69;7396124;19;20078;-66
2023/08/07 00:28:15;;;;;;;14.45;10.13;;;;;;;14.20;100.00;99736.22;7395519;19;20351;-66
2023/08/07 00:30:46;;;;;;;12.70;10.73;;;;;;;14.20;100.00;99740.66;7395785;19;20027;-66
2023/08/07 00:33:14;;;;;;;12.93;10.27;;;;;;;14.18;100.00;99728.41;7395854;19;20023;-66
2023/08/07 00:35:43;;;;;;;13.60;10.57;;;;;;;14.19;100.00;99726.59;7395838;19;20485;-66
2023/08/07 00:38:11;;;;;;;12.32;10.50;;;;;;;14.17;100.00;99720.56;7398322;19;20011;-66
2023/08/07 00:40:41;;;;;;;15.43;10.63;;;;;;;14.17;100.00;99729.31;7396589;19;20082;-66
2023/08/07 00:43:09;;;;;;;14.13;10.90;;;;;;;14.17;100.00;99725.84;7397220;19;20492;-66
2023/08/07 00:45:44;;;;;;;13.90;10.88;;;;;;;14.17;100.00;99725.84;7395050;19;20022;-66
2023/08/07 00:48:17;;;;;;;12.02;9.32;;;;;;;14.15;100.00;99723.31;7397112;19;20014;-66
2023/08/07 00:50:48;;;;;;;10.50;9.13;;;;;;;14.15;100.00;99723.31;7395542;19;20027;-66
2023/08/07 00:53:17;;;;;;;13.70;9.40;;;;;;;14.13;100.00;99727.78;7395795;19;20073;-66
2023/08/07 00:55:46;;;;;;;13.93;9.93;;;;;;;14.12;100.00;99718.16;7394898;19;20007;-66
2023/08/07 00:58:14;;;;;;;11.30;9.82;;;;;;;14.12;100.00;99723.44;7396883;19;20027;-66
2023/08/07 01:00:43;;;;;;;13.18;10.15;;;;;;;14.10;100.00;99725.34;7394941;19;20027;-66
2023/08/07 01:03:15;;;;;;;11.40;9.52;;;;;;;14.07;100.00;99711.44;7396468;19;20007;-66
2023/08/07 01:06:05;;;;;;;14.98;10.18;;;;;;;14.06;100.00;99713.22;7396482;19;20011;-66
2023/08/07 01:08:34;;;;;;;12.57;10.15;;;;;;;14.09;100.00;99717.47;7394970;19;20024;-66
2023/08/07 01:11:17;;;;;;;18.05;9.57;;;;;;;14.08;100.00;99727.19;7394371;19;20087;-66
2023/08/07 01:14:06;;;;;;;10.18;9.10;;;;;;;14.07;100.00;99725.47;7389463;19;20017;-65
2023/08/07 01:16:40;;;;;;;13.15;10.10;;;;;;;14.06;100.00;99730.84;7396739;19;20082;-66
2023/08/07 01:19:14;;;;;;;;;;;;;;;14.05;100.00;99727.31;7397358;19;20023;-66
2023/08/07 01:21:50;;;;;;;12.25;9.18;;;;;;;14.04;100.00;99730.94;7395682;19;19915;-66
2023/08/07 01:24:19;;;;;;;11.75;8.73;;;;;;;14.04;100.00;99722.16;7394063;19;20376;-66
2023/08/07 01:26:48;;;;;;;13.23;9.43;;;;;;;14.02;100.00;99727.50;7395362;19;20010;-66
2023/08/07 01:29:24;;;;;;;13.45;9.32;;;;;;;14.00;100.00;99726.72;7395885;19;20002;-66
2023/08/07 01:31:56;;;;;;;13.18;9.05;;;;;;;13.99;100.00;99732.94;7396968;19;20427;-66
2023/08/07 01:34:26;;;;;;;12.93;9.23;;;;;;;13.97;100.00;99725.09;7394114;19;20070;-67
2023/08/07 01:36:59;;;;;;;13.00;8.50;;;;;;;13.96;100.00;99731.31;7393996;19;20355;-66
2023/08/07 01:39:28;;;;;;;12.77;8.48;;;;;;;13.95;100.00;99726.97;7395192;19;20006;-66
2023/08/07 01:42:00;;;;;;;11.77;8.88;;;;;;;13.95;100.00;99723.47;7393685;19;20014;-66
2023/08/07 01:44:28;;;;;;;9.43;7.75;;;;;;;13.93;100.00;99723.56;7394032;19;20074;-66
2023/08/07 01:46:57;;;;;;;14.32;8.05;;;;;;;13.91;100.00;99724.56;7394920;19;20343;-66
2023/08/07 01:49:25;;;;;;;10.10;7.47;;;;;;;13.90;100.00;99725.50;7393172;19;20011;-66
2023/08/07 01:51:56;;;;;;;12.00;7.53;;;;;;;13.87;100.00;99715.97;7392924;19;20485;-66
2023/08/07 01:54:25;;;;;;;9.55;6.30;;;;;;;13.85;100.00;99721.31;7393862;19;20018;-66
2023/08/07 01:56:53;;;;;;;10.45;6.80;;;;;;;13.83;100.00;99723.19;7394624;19;20086;-66
2023/08/07 01:59:22;;;;;;;12.98;7.57;;;;;;;13.80;100.00;99715.44;7394986;19;20077;-66
2023/08/07 02:01:50;;;;;;;11.65;6.72;;;;;;;13.77;100.00;99720.00;7393002;19;20014;-66
2023/08/07 02:04:19;;;;;;;11.52;6.53;;;;;;;13.75;100.00;99716.59;7392864;19;20176;-66
2023/08/07 02:06:48;;;;;;;9.38;6.47;;;;;;;13.73;100.00;99718.47;7394433;19;20102;-66
2023/08/07 02:09:19;;;;;;;13.35;7.25;;;;;;;13.69;100.00;99717.78;7392842;19;20011;-66
2023/08/07 02:11:47;;;;;;;8.82;6.00;;;;;;;13.67;100.00;99717.88;7395010;19;20014;-66
2023/08/07 02:14:16;;;;;;;9.70;5.78;;;;;;;13.65;100.00;99727.63;7392518;19;20018;-66
2023/08/07 02:16:44;;;;;;;8.77;5.50;;;;;;;13.63;100.00;99731.25;7394449;19;20043;-66
2023/08/07 02:19:13;;;;;;;8.13;6.13;;;;;;;13.61;100.00;99727.84;7394346;19;20367;-66
2023/08/07 02:21:41;;;;;;;7.10;6.30;;;;;;;13.59;100.00;99729.72;7394214;19;20074;-66
2023/08/07 02:24:10;;;;;;;7.65;5.65;;;;;;;13.57;100.00;99723.66;7392284;19;20078;-66
2023/08/07 02:26:41;;;;;;;10.95;6.13;;;;;;;13.56;100.00;99738.63;7393826;19;20368;-66
2023/08/07 02:29:09;;;;;;;10.48;6.25;;;;;;;13.55;100.00;99733.41;7392597;19;20091;-66
2023/08/07 02:31:38;;;;;;;7.70;5.75;;;;;;;13.54;100.00;99731.75;7393720;19;20020;-66
2023/08/07 02:34:06;;;;;;;7.80;6.50;;;;;;;13.53;100.00;99741.41;7391705;19;20031;-66
2023/08/07 02:36:35;;;;;;;6.80;5.63;;;;;;;13.51;100.00;99738.84;7400368;19;20090;-66
2023/08/07 02:39:03;;;;;;;7.75;6.55;;;;;;;13.50;100.00;99736.31;7400853;19;20473;-66
2023/08/07 02:41:32;;;;;;;7.40;5.95;;;;;;;13.49;100.00;99740.69;7400841;19;20019;-66
2023/08/07 02:44:03;;;;;;;6.45;5.63;;;;;;;13.46;100.00;99734.75;7398305;19;20018;-66
2023/08/07 02:46:31;;;;;;;12.63;6.88;;;;;;;13.43;100.00;99738.38;7398395;19;20421;-65
2023/08/07 02:49:00;;;;;;;8.60;6.35;;;;;;;13.40;100.00;99735.91;7400610;19;20002;-66
2023/08/07 02:51:28;;;;;;;9.40;6.50;;;;;;;13.38;100.00;99739.53;7398240;19;20014;-66
2023/08/07 02:53:56;;;;;;;12.10;6.35;;;;;;;13.34;100.00;99744.94;7397659;19;20372;-65
2023/08/07 02:56:25;;;;;;;8.13;6.70;;;;;;;13.32;100.00;99743.28;7397618;19;20010;-65
2023/08/07 02:58:53;;;;;;;8.20;6.35;;;;;;;13.27;100.00;99746.16;7397630;19;20019;-66
2023/08/07 03:01:25;;;;;;;8.32;6.70;;;;;;;13.25;100.00;99747.16;7400470;19;20018;-66
2023/08/07 03:03:53;;;;;;;8.93;6.85;;;;;;;13.23;100.00;99754.28;7398863;19;20027;-66
2023/08/07 03:06:22;;;;;;;13.48;6.80;;;;;;;13.20;100.00;99757.91;7397670;19;20010;-65
2023/08/07 03:08:50;;;;;;;9.95;6.68;;;;;;;13.18;100.00;99762.41;7399818;19;20384;-66
2023/08/07 03:11:18;;;;;;;10.27;7.20;;;;;;;13.16;100.00;99759.84;7399997;19;20018;-66
2023/08/07 03:13:48;;;;;;;9.80;7.22;;;;;;;13.15;100.00;99762.56;7397763;19;20364;-66
2023/08/07 03:16:17;;;;;;;9.00;7.30;;;;;;;13.15;100.00;99770.47;7397344;19;20037;-65
2023/08/07 03:18:49;;;;;;;11.02;7.70;;;;;;;13.15;100.00;99773.09;7397587;19;20018;-65
2023/08/07 03:21:17;;;;;;;11.65;7.43;;;;;;;13.15;100.00;99767.81;7400262;19;20014;-66
2023/08/07 03:23:46;;;;;;;11.95;7.97;;;;;;;13.15;100.00;99773.94;7398363;19;20031;-66
2023/08/07 03:26:15;;;;;;;10.93;8.80;;;;;;;13.15;100.00;99773.94;7399732;19;20035;-65
2023/08/07 03:28:46;;;;;;;11.38;7.57;;;;;;;13.14;100.00;99774.88;7399766;19;20022;-66
2023/08/07 03:31:14;;;;;;;12.90;8.38;;;;;;;13.16;100.00;99774.81;7399353;19;20489;-65
2023/08/07 03:33:42;;;;;;;10.88;8.55;;;;;;;13.15;100.00;99781.84;7398394;19;20032;-66
2023/08/07 03:36:14;;;;;;;10.55;8.95;;;;;;;13.15;100.00;99787.09;7396730;19;20019;-65
2023/08/07 03:38:42;;;;;;;11.50;8.63;;;;;;;13.16;100.00;99787.97;7399688;19;20021;-66
2023/08/07 03:41:11;;;;;;;13.32;8.65;;;;;;;13.16;100.00;99794.06;7398722;19;20023;-65
2023/08/07 03:43:39;;;;;;;13.32;9.32;;;;;;;13.18;100.00;99797.50;7398139;19;20015;-66
2023/08/07 03:46:07;;;;;;;16.77;11.05;;;;;;;13.19;100.00;99793.06;7396267;19;20021;-66
2023/08/07 03:48:36;;;;;;;11.43;9.20;;;;;;;13.20;100.00;99798.28;7398949;19;20311;-68
2023/08/07 03:51:06;;;;;;;11.68;9.05;;;;;;;13.23;100.00;99799.94;7399297;19;20031;-66
2023/08/07 03:53:37;;;;;;;13.65;8.90;;;;;;;13.26;100.00;99793.66;7396786;19;20015;-66
2023/08/07 03:56:06;;;;;;;12.30;8.82;;;;;;;13.27;100.00;99796.22;7397158;19;20032;-66
2023/08/07 03:58:34;;;;;;;13.50;9.30;;;;;;;13.29;100.00;99796.13;7398838;19;20028;-66
2023/08/07 04:01:03;;;;;;;14.27;9.85;;;;;;;13.32;100.00;99795.97;7398946;19;20027;-66
2023/08/07 04:03:31;;;;;;;13.85;9.07;;;;;;;13.35;100.00;99795.84;7397517;19;20028;-66
2023/08/07 04:06:00;;;;;;;14.43;9.80;;;;;;;13.36;100.00;99782.59;7396339;19;20070;-66
2023/08/07 04:08:28;;;;;;;11.65;8.73;;;;;;;13.38;100.00;99795.72;7399270;19;20007;-66
2023/08/07 04:11:04;;;;;;;12.38;9.13;;;;;;;13.40;100.00;99790.38;7398065;19;20010;-66
2023/08/07 04:13:33;;;;;;;13.73;9.05;;;;;;;13.41;100.00;99792.06;7396945;19;20486;-66
2023/08/07 04:16:04;;;;;;;11.52;8.15;;;;;;;13.42;100.00;99797.28;7396948;19;20094;-65
2023/08/07 04:18:32;;;;;;;14.85;9.30;;;;;;;13.43;100.00;99793.69;7396654;19;20082;-66
2023/08/07 04:21:01;;;;;;;14.98;8.48;;;;;;;13.45;100.00;99794.50;7395985;19;20010;-66
2023/08/07 04:23:31;;;;;;;11.65;8.85;;;;;;;13.46;100.00;99795.38;7397100;19;20031;-66
2023/08/07 04:25:59;;;;;;;9.35;7.63;;;;;;;13.50;100.00;99787.22;7397521;19;20018;-66
2023/08/07 04:28:31;;;;;;;17.02;7.65;;;;;;;13.51;100.00;99788.91;7397188;19;20465;-66
2023/08/07 04:30:59;;;;;;;11.93;8.23;;;;;;;13.54;100.00;99792.34;7397593;19;20390;-65
2023/08/07 04:33:28;;;;;;;8.35;7.47;;;;;;;13.55;100.00;99789.63;7396110;19;20010;-66
2023/08/07 04:35:56;;;;;;;9.50;7.72;;;;;;;13.55;100.00;99801.94;7395716;19;20074;-65
2023/08/07 04:38:25;;;;;;;14.98;7.53;;;;;;;13.58;100.00;99796.53;7396959;19;20022;-65
2023/08/07 04:40:54;;;;;;;11.65;6.75;;;;;;;13.60;100.00;99799.94;7396959;19;20043;-66
2023/08/07 04:43:22;;;;;;;10.07;7.07;;;;;;;13.65;100.00;99803.22;7395181;19;20018;-66
2023/08/07 04:45:53;;;;;;;7.68;6.60;;;;;;;13.65;100.00;99803.22;7396869;19;20352;-66
2023/08/07 04:48:25;;;;;;;10.98;6.68;;;;;;;13.65;100.00;99813.75;7396735;19;20557;-65
2023/08/07 04:50:53;;;;;;;11.38;7.03;;;;;;;13.68;100.00;99814.44;7394647;19;20478;-66
2023/08/07 04:53:21;;;;;;;14.38;7.47;;;;;;;13.69;100.00;99815.31;7394547;19;20343;-66
2023/08/07 04:55:50;;;;;;;10.18;6.75;;;;;;;13.72;100.00;99816.94;7395650;19;20018;-65
2023/08/07 04:58:18;;;;;;;9.10;6.72;;;;;;;13.73;100.00;99814.22;7395047;19;20031;-66
2023/08/07 05:00:47;;;;;;;14.10;6.95;;;;;;;13.75;100.00;99811.50;7395266;19;20014;-66
2023/08/07 05:03:18;;;;;;;10.38;7.45;;;;;;;13.76;100.00;99808.81;7394430;19;20027;-66
2023/08/07 05:05:46;;;;;;;10.40;7.30;;;;;;;13.77;100.00;99809.63;7396412;19;20066;-66
2023/08/07 05:08:15;;;;;;;10.38;7.25;;;;;;;13.77;100.00;99813.13;7396308;19;20034;-65
2023/08/07 05:10:43;;;;;;;11.13;7.28;;;;;;;13.78;100.00;99819.25;7395557;19;20390;-65
2023/08/07 05:13:12;;;;;;;12.20;7.65;;;;;;;13.81;100.00;99819.97;7395415;19;20019;-65
2023/08/07 05:15:40;;;;;;;13.02;7.75;;;;;;;13.83;100.00;99827.78;7394041;19;20011;-66
2023/08/07 05:18:09;;;;;;;7.70;6.97;;;;;;;13.84;100.00;99829.50;7395697;19;20033;-66
2023/08/07 05:20:40;;;;;;;11.05;6.88;;;;;;;13.87;100.00;99828.50;7396032;19;20028;-66
2023/08/07 05:23:08;;;;;;;9.55;7.05;;;;;;;13.87;100.00;99815.31;7395438;19;20014;-65
2023/08/07 05:25:37;;;;;;;8.95;6.80;;;;;;;13.89;100.00;99818.72;7393552;19;20541;-66
2023/08/07 05:28:06;;;;;;;9.02;6.80;;;;;;;13.91;100.00;99819.50;7396073;19;20041;-68
2023/08/07 05:30:35;;;;;;;13.70;6.53;;;;;;;13.93;100.00;99823.75;7395916;19;20014;-66
2023/08/07 05:33:03;;;;;;;8.43;7.22;;;;;;;13.96;100.00;99825.38;7394826;19;20491;-69
2023/08/07 05:35:31;;;;;;;9.63;6.40;;;;;;;14.01;100.00;99831.28;7394688;19;20019;-68
2023/08/07 05:38:03;;;;;;;9.40;6.07;;;;;;;14.06;100.00;99825.78;7395272;19;20031;-66
2023/08/07 05:40:34;;;;;;;9.23;5.97;;;;;;;14.10;100.00;99833.47;7393183;19;20010;-66
2023/08/07 05:43:02;;;;;;;7.78;6.03;;;;;;;14.13;100.00;99827.19;7394590;19;20370;-66
2023/08/07 05:45:31;;;;;;;6.95;5.82;;;;;;;14.16;100.00;99832.28;7394578;19;20478;-66
2023/08/07 05:47:59;;;;;;;7.45;5.57;;;;;;;14.22;100.00;99845.16;7392983;19;20473;-67
2023/08/07 05:50:28;;;;;;;7.15;5.55;;;;;;;14.24;100.00;99842.44;7393276;19;20010;-67
2023/08/07 05:52:56;;;;;;;7.13;4.75;;;;;;;14.29;100.00;99849.22;7392998;19;20010;-67
2023/08/07 05:55:27;;;;;;;6.53;4.72;;;;;;;14.33;100.00;99847.22;7394170;19;20027;-67
2023/08/07 05:57:56;;;;;;;6.50;4.22;;;;;;;14.40;100.00;99842.50;7392545;19;20006;-67
2023/08/07 06:00:25;;;;;;;5.70;4.50;;;;;;;14.44;100.00;99847.53;7394659;19;20018;-65
2023/08/07 06:02:53;;;;;;;7.57;4.70;;;;;;;14.51;100.00;99840.16;7392618;19;20017;-67
2023/08/07 06:05:21;;;;;;;6.28;4.78;;;;;;;14.57;100.00;99852.16;7393919;19;20400;-65
2023/08/07 06:07:50;;;;;;;7.55;5.18;;;;;;;14.61;99.35;99848.47;7392702;19;20014;-64
2023/08/07 06:10:18;;;;;;;6.22;4.82;;;;;;;14.66;99.25;99844.66;7395450;19;20018;-66
2023/08/07 06:12:50;;;;;;;6.05;4.50;;;;;;;14.71;99.24;99852.34;7401770;19;20024;-65
2023/08/07 06:15:19;;;;;;;7.13;4.82;;;;;;;14.78;98.68;99863.41;7399035;19;20036;-66
2023/08/07 06:17:47;;;;;;;7.03;4.20;;;;;;;14.80;97.59;99851.84;7399034;19;20014;-66
2023/08/07 06:20:16;;;;;;;6.10;4.53;;;;;;;14.85;97.77;99853.38;7401870;19;20070;-66
2023/08/07 06:22:45;;;;;;;4.78;4.05;;;;;;;14.89;95.86;99865.50;7401579;19;20015;-66
2023/08/07 06:25:13;;;;;;;7.40;4.93;;;;;;;14.91;95.92;99863.63;7401642;19;20014;-66
2023/08/07 06:27:42;;;;;;;4.22;3.80;;;;;;;14.93;96.37;99867.88;7401206;19;20014;-66
2023/08/07 06:30:19;;;;;;;8.20;4.30;;;;;;;14.95;95.09;99860.72;7401305;19;20031;-66
2023/08/07 06:32:48;;;;;;;7.15;3.50;;;;;;;14.98;95.92;99865.00;7400832;19;20003;-66
2023/08/07 06:35:16;;;;;;;5.10;3.92;;;;;;;15.03;95.70;99872.69;7400162;19;20022;-66
2023/08/07 06:37:45;;;;;;;6.55;3.88;;;;;;;15.08;96.38;99876.75;7400873;19;20070;-66
2023/08/07 06:40:14;;;;;;;6.28;3.83;;;;;;;15.13;94.51;99895.00;7397779;19;20423;-66
2023/08/07 06:42:42;;;;;;;4.47;3.53;;;;;;;15.18;93.94;99881.53;7400554;19;20086;-67
2023/08/07 06:45:12;;;;;;;4.60;3.15;;;;;;;15.23;94.07;99888.28;7400805;19;20023;-67
2023/08/07 06:47:43;;;;;;;7.22;3.70;;;;;;;15.27;94.42;99891.63;7400851;19;20023;-66
2023/08/07 06:50:12;;;;;;;5.35;3.28;;;;;;;15.31;93.54;99907.19;7400744;19;20023;-66
2023/08/07 06:52:41;;;;;;;6.75;3.40;;;;;;;15.30;91.33;99897.59;7397531;19;20007;-67
2023/08/07 06:55:10;;;;;;;6.25;3.90;;;;;;;15.33;90.40;99896.56;7400122;19;20027;-67
2023/08/07 06:57:39;;;;;;;3.40;2.83;;;;;;;15.37;91.94;99897.25;7400479;19;20041;-67
2023/08/07 07:00:10;;;;;;;5.63;2.88;;;;;;;15.38;91.55;99904.22;7400093;19;20074;-67
2023/08/07 07:02:39;;;;;;;4.10;3.13;;;;;;;15.41;92.24;99915.47;7400284;19;20006;-66
2023/08/07 07:05:10;;;;;;;5.80;3.15;;;;;;;15.43;90.01;99907.47;7396888;19;20031;-67
2023/08/07 07:07:39;;;;;;;3.38;3.05;;;;;;;15.44;88.86;99936.47;7397613;19;20019;-67
2023/08/07 07:10:14;;;;;;;7.75;3.28;;;;;;;15.48;90.51;99916.84;7399985;19;20019;-67
2023/08/07 07:12:43;;;;;;;3.90;3.42;;;;;;;15.52;90.67;99921.97;7397202;19;20011;-67
2023/08/07 07:15:12;;;;;;;3.65;2.90;;;;;;;15.55;90.69;99921.81;7397601;19;20018;-67
2023/08/07 07:17:41;;;;;;;4.40;2.90;;;;;;;15.56;90.85;99916.44;7399123;19;20054;-67
2023/08/07 07:20:13;;;;;;;7.40;3.20;;;;;;;15.63;89.08;99920.44;7398207;19;20010;-66
2023/08/07 07:22:41;;;;;;;6.10;2.88;;;;;;;15.70;90.53;99922.75;7399478;19;20022;-66
2023/08/07 07:25:11;;;;;;;3.47;2.65;;;;;;;15.73;90.56;99920.78;7399499;19;20037;-66
2023/08/07 07:27:41;;;;;;;5.95;3.20;;;;;;;15.78;90.34;99931.09;7398928;19;20023;-66
2023/08/07 07:30:11;;;;;;;7.10;3.08;;;;;;;15.83;90.57;99926.41;7398745;19;20403;-66
2023/08/07 07:32:39;;;;;;;5.53;2.67;;;;;;;15.86;89.43;99935.97;7398913;19;20372;-66
2023/08/07 07:35:08;;;;;;;4.70;3.08;;;;;;;15.88;89.26;99921.72;7396605;19;20018;-66
2023/08/07 07:37:40;;;;;;;4.10;2.80;;;;;;;15.90;86.42;99933.06;7396625;19;20022;-66
2023/08/07 07:40:10;;;;;;;4.28;2.30;;;;;;;15.95;87.68;99932.81;7397670;19;20018;-66
2023/08/07 07:42:38;;;;;;;5.22;2.80;;;;;;;15.99;86.94;99934.34;7398567;19;20031;-66
2023/08/07 07:45:08;;;;;;;6.22;2.78;;;;;;;16.06;86.31;99940.13;7397035;19;20014;-66
2023/08/07 07:47:36;;;;;;;13.50;2.75;;;;;;;16.11;85.31;99931.00;7398733;19;20027;-66
2023/08/07 07:50:12;;;;;;;2.88;2.28;;;;;;;16.19;82.42;99946.44;7398528;19;20546;-65
2023/08/07 07:52:43;;;;;;;2.28;1.88;;;;;;;16.27;81.81;99945.97;7398215;19;20007;-66
2023/08/07 07:55:13;;;;;;;3.47;2.70;;;;;;;16.38;83.10;99942.72;7398067;19;20380;-66
2023/08/07 07:57:42;;;;;;;5.25;2.45;;;;;;;16.48;82.44;99950.94;7398472;19;20014;-66
2023/08/07 08:00:13;;;;;;;3.58;2.38;;;;;;;16.53;79.76;99952.38;7398649;19;20011;-66
2023/08/07 08:02:42;;;;;;;2.58;1.90;;;;;;;16.63;80.91;99941.25;7399050;19;20014;-66
2023/08/07 08:05:12;;;;;;;4.47;2.10;;;;;;;16.72;82.08;99948.63;7397612;19;20011;-66
2023/08/07 08:07:43;;;;;;;3.92;2.05;;;;;;;16.82;80.79;99946.28;7397813;19;20010;-65
2023/08/07 08:10:13;;;;;;;2.95;2.03;;;;;;;16.87;80.05;99960.97;7395920;19;20027;-66
2023/08/07 08:12:41;;;;;;;6.38;2.63;;;;;;;16.89;77.70;99971.47;7398008;19;20011;-66
2023/08/07 08:15:11;;;;;;;4.93;1.92;;;;;;;16.91;76.25;99951.91;7396390;19;20090;-66
2023/08/07 08:17:39;;;;;;;5.72;2.30;;;;;;;16.91;76.36;99974.91;7396153;19;20022;-66
2023/08/07 08:20:10;;;;;;;2.35;2.10;;;;;;;16.88;75.50;99967.09;7398172;19;20015;-66
2023/08/07 08:22:38;;;;;;;2.60;1.98;;;;;;;16.93;79.60;99963.28;7397781;19;20015;-66
2023/08/07 08:25:11;;;;;;;5.15;2.78;;;;;;;16.97;78.95;99961.25;7394787;19;20433;-67
2023/08/07 08:27:39;;;;;;;4.13;2.25;;;;;;;17.01;79.03;99969.88;7397325;19;20029;-66
2023/08/07 08:30:09;;;;;;;6.40;2.75;;;;;;;16.99;77.96;99977.94;7396484;19;20030;-66
2023/08/07 08:32:38;;;;;;;3.47;1.95;;;;;;;16.98;77.73;99984.16;7394394;19;20368;-66
2023/08/07 08:35:08;;;;;;;3.33;2.22;;;;;;;16.92;74.36;99985.41;7395427;19;20033;-67
2023/08/07 08:37:36;;;;;;;2.78;2.00;;;;;;;16.94;77.31;99969.41;7395319;19;20021;-66
2023/08/07 08:40:06;;;;;;;2.78;2.13;;;;;;;16.98;77.59;99972.72;7397501;19;20082;-67
2023/08/07 08:42:37;;;;;;;2.35;2.08;;;;;;;17.02;76.95;99977.75;7397533;19;20015;-68
2023/08/07 08:45:07;;;;;;;4.32;2.33;;;;;;;17.04;75.86;99975.84;7395276;19;20035;-67
2023/08/07 08:47:37;;;;;;;3.17;2.00;;;;;;;17.07;77.44;99972.16;7397064;19;20103;-67
2023/08/07 08:50:06;;;;;;;4.43;2.17;;;;;;;17.09;74.93;99978.22;7396585;19;20015;-67
2023/08/07 08:52:35;;;;;;;4.70;2.33;;;;;;;17.17;75.90;99983.06;7396584;19;20049;-67
2023/08/07 08:55:06;;;;;;;3.13;1.55;;;;;;;17.22;74.29;99986.28;7394223;19;20015;-67
2023/08/07 08:57:38;;;;;;;1.98;1.50;;;;;;;17.22;72.94;99988.94;7394537;19;20541;-67
2023/08/07 09:00:17;;;;;;;4.25;1.42;;;;;;;17.21;71.29;100000.47;7394560;19;20384;-67
2023/08/07 09:02:47;;;;;;;2.15;1.60;;;;;;;17.23;72.89;99986.16;7395742;19;20426;-67
2023/08/07 09:05:17;;;;;;;3.92;1.60;;;;;;;17.28;72.31;99990.38;7395807;19;20506;-67
2023/08/07 09:07:46;;;;;;;3.90;1.52;;;;;;;17.32;71.78;99974.16;7395731;19;20006;-67
2023/08/07 09:10:16;;;;;;;2.78;1.73;;;;;;;17.38;71.67;99976.41;7396008;19;20026;-67
2023/08/07 09:12:55;;;;;;;2.05;1.63;;;;;;;17.44;70.75;99991.09;7393697;19;20495;-67
2023/08/07 09:15:26;;;;;;;3.08;1.30;;;;;;;17.51;70.98;99983.63;7393542;19;20014;-67
2023/08/07 09:17:56;;;;;;;2.83;1.83;;;;;;;17.55;71.96;99995.72;7394288;19;20006;-67
2023/08/07 09:20:25;;;;;;;3.50;1.65;;;;;;;17.58;70.42;100000.84;7395442;19;20494;-67
2023/08/07 09:22:53;;;;;;;2.47;1.42;;;;;;;17.61;70.69;99987.38;7393654;19;20431;-67
2023/08/07 09:25:30;;;;;;;3.55;1.65;;;;;;;17.67;70.73;99984.34;7396116;19;20027;-67
2023/08/07 09:28:01;;;;;;;2.58;1.30;;;;;;;17.73;67.98;99991.91;7394539;19;20014;-67
2023/08/07 09:30:31;;;;;;;2.78;1.90;;;;;;;17.82;70.05;99982.53;7394333;19;20074;-67
2023/08/07 09:33:00;;;;;;;3.45;1.45;;;;;;;17.91;70.33;99981.91;7394787;19;20015;-67
2023/08/07 09:35:29;;;;;;;1.73;1.40;;;;;;;18.02;69.99;99999.84;7394584;19;20015;-67
2023/08/07 09:37:59;;;;;;;3.22;1.83;;;;;;;18.07;68.71;99989.78;7393702;19;20014;-67
2023/08/07 09:40:28;;;;;;;2.70;1.30;;;;;;;18.14;67.02;100007.97;7395597;19;20031;-67
2023/08/07 09:42:57;;;;;;;2.40;1.40;;;;;;;18.17;66.06;100040.47;7393083;19;20014;-67
2023/08/07 09:45:31;;;;;;;1.67;1.13;;;;;;;18.19;64.76;100013.81;7394079;19;20035;-67
2023/08/07 09:48:00;;;;;;;3.15;1.20;;;;;;;18.23;66.48;99994.06;7394956;19;20023;-67
2023/08/07 09:50:29;;;;;;;2.13;1.30;;;;;;;18.22;65.50;100018.91;7394450;19;20554;-66
2023/08/07 09:52:58;;;;;;;2.00;1.13;;;;;;;18.23;63.54;100016.16;7394419;19;20500;-66
2023/08/07 09:55:27;;;;;;;3.30;1.27;;;;;;;18.24;66.06;100011.72;7392661;19;20502;-66
2023/08/07 09:57:56;;;;;;;2.05;1.40;;;;;;;18.24;64.88;100001.09;7393016;19;20014;-66
2023/08/07 10:00:28;;;;;;;3.35;1.40;;;;;;;18.24;65.36;100007.25;7394964;19;20034;-66
2023/08/07 10:02:56;;;;;;;1.92;1.30;;;;;;;18.29;67.00;99992.84;7394446;19;20143;-67
2023/08/07 10:05:25;;;;;;;2.47;1.38;;;;;;;18.37;67.05;99996.69;7394283;19;20018;-67
2023/08/07 10:07:54;;;;;;;5.53;1.63;;;;;;;18.44;65.21;100007.75;7394248;19;20023;-66
2023/08/07 10:10:25;;;;;;;2.53;1.27;;;;;;;18.45;65.64;100009.44;7393955;19;20002;-67
2023/08/07 10:12:54;;;;;;;1.35;1.13;;;;;;;18.47;63.84;100012.00;7394580;19;20045;-66
2023/08/07 10:15:23;;;;;;;2.88;1.10;;;;;;;18.50;64.12;100012.66;7391760;19;20078;-66
2023/08/07 10:17:55;;;;;;;2.45;1.38;;;;;;;18.59;63.59;100021.81;7392287;19;20473;-66
2023/08/07 10:20:25;;;;;;;4.35;1.35;;;;;;;18.60;61.34;100025.31;7394311;19;20416;-66
2023/08/07 10:22:55;;;;;;;2.20;1.05;;;;;;;18.61;62.57;100030.50;7392603;19;20018;-66
2023/08/07 10:25:26;;;;;;;1.55;1.35;;;;;;;18.62;62.49;100018.94;7394539;19;20031;-66
2023/08/07 10:28:00;;;;;;;2.33;1.20;;;;;;;18.65;62.76;99999.28;7391796;19;20015;-66
2023/08/07 10:30:29;;;;;;;2.95;1.30;;;;;;;18.63;61.11;100055.19;7394091;19;20086;-66
2023/08/07 10:33:02;;;;;;;3.47;1.40;;;;;;;18.60;61.13;100018.16;7391583;19;20011;-66
2023/08/07 10:35:33;;;;;;;2.65;1.55;;;;;;;18.56;61.97;100022.88;7393195;19;20069;-66
2023/08/07 10:38:09;;;;;;;5.43;1.30;;;;;;;18.60;61.75;100010.19;7392301;19;20007;-67
2023/08/07 10:41:01;;;;;;;2.88;1.30;;;;;;;18.64;61.51;100017.03;7393922;19;20018;-67
2023/08/07 10:43:30;;;;;;;2.53;1.02;;;;;;;18.71;62.36;100018.31;7391683;19;20014;-69
2023/08/07 10:46:06;;;;;;;2.15;1.10;;;;;;;18.76;60.53;100007.38;7393040;19;20011;-70
2023/08/07 10:48:45;;;;;;;12.85;1.27;;;;;;;18.85;59.55;100011.22;7394055;19;20019;-66
2023/08/07 10:51:16;;;;;;;3.20;1.00;;;;;;;18.87;60.43;100007.50;7393578;19;20018;-71
2023/08/07 10:53:46;;;;;;;3.22;1.05;;;;;;;19.00;61.60;99996.06;7392392;19;20362;-68
2023/08/07 10:56:20;;;;;;;3.30;1.13;;;;;;;19.09;59.55;100018.50;7392676;19;20010;-67
2023/08/07 10:58:54;;;;;;;1.95;1.15;;;;;;;19.18;59.34;99999.25;7400939;19;20007;-67
2023/08/07 11:01:24;;;;;;;3.13;1.35;;;;;;;19.19;58.64;100024.88;7400118;19;20021;-67
2023/08/07 11:03:57;;;;;;;2.40;1.02;;;;;;;19.14;57.59;100029.66;7399252;19;20466;-67
2023/08/07 11:06:28;;;;;;;3.80;1.10;;;;;;;19.16;59.45;100012.66;7399871;19;20023;-67
2023/08/07 11:08:57;;;;;;;4.50;1.25;;;;;;;19.23;59.93;100014.88;7400465;19;20018;-67
2023/08/07 11:11:26;;;;;;;1.88;0.98;;;;;;;19.25;59.98;100013.81;7399539;19;20086;-67
2023/08/07 11:13:54;;;;;;;3.85;1.30;;;;;;;19.28;59.57;100013.59;7396349;19;20417;-66
2023/08/07 11:16:23;;;;;;;1.02;0.88;;;;;;;19.33;58.96;100007.97;7397197;19;20014;-67
2023/08/07 11:18:52;;;;;;;1.25;1.00;;;;;;;19.36;60.60;100011.25;7399959;19;20017;-66
2023/08/07 11:21:23;;;;;;;4.00;1.17;;;;;;;19.34;58.02;100017.66;7399702;19;20074;-66
2023/08/07 11:23:52;;;;;;;9.45;1.60;;;;;;;19.30;59.43;100037.44;7398121;19;20014;-67
2023/08/07 11:26:24;;;;;;;2.58;1.40;;;;;;;19.23;60.34;99999.75;7399548;19;20022;-66
2023/08/07 11:28:53;;;;;;;2.80;1.30;;;;;;;19.22;60.28;100003.38;7397365;19;20007;-67
2023/08/07 11:31:21;;;;;;;1.85;1.08;;;;;;;19.29;59.90;100003.81;7399124;19;20015;-67
2023/08/07 11:33:52;;;;;;;1.33;0.90;;;;;;;19.37;60.63;100014.75;7398080;19;20022;-66
2023/08/07 11:36:24;;;;;;;2.60;1.27;;;;;;;19.41;59.95;100004.75;7400273;19;20024;-66